Portada
METAR-TAF:

METAR-TAF

Aeropuertos :

Cognac, Francia

latitud: 45-40N, longitud: 000-19W, altitud: 30 m

Observación

El informe se hizo hace 23 minutos, a las 08:00 UTC
Viento 4 kt del este
Temperatura 5°C
Humedad 75%
Presión 1032 hPa
Visibilidad 10 km o más
sin nubes por debajo de 1500 m y sin presencia de cumulonimbus.

METAR: LFBG 220800Z AUTO 08004KT CAVOK 05/01 Q1032

Hora: 09:23 (08:23 UTC)

Pronóstico

El informe se hizo hace 6 horas y 23 minutos, a las 02:00 UTC
Pronóstico válido del 22 a las 03 UTC al 23 a las 03 UTC
Viento 3 kt del noreste
Visibilidad 10 km o más
sin nubes por debajo de 1500 m y sin presencia de cumulonimbus.

TAF: LFBG 220200Z 2203/2303 05003KT CAVOK

Observaciones y pronósticos meteorológicos de más de 4000 aeropuertos (mensajes METAR y TAF).

Los puntos amarillos y rojos representan las estaciones disponibles.

Ponga el ratón en el punto deseado para ver el nombre de la estación.

Haga clic para ver las observaciones y los pronósticos meteorológicos.

Para cambiar el mapa : haga clic en los botones verdes con una cruz de color negro para hacer un zoom, en el botón verde con un guión para alejar o en las flechas verdes para mapas adyacentes.


METAR-TAF: